Chaflin Bridge, Illinois
Current Conditions -  °F | °C
As of 4:55 PM on Wednesday 26 Nov 2014 (Local Time) from KSAR Reporting Station
Light Snow Light Snow  
Wind Chill: 32°   Ceiling: 300
Heat Index: 32°   Visibility: 1.5mi
Dew Point: 32°   Wind: 0mph
Humidity: 99%   Direction: NA
Pressure: 30.03"   Gusts: NA
Location:  38.164°N, 90.1984°W
Report Text: KSAR 262255Z AUTO 00000KT 1 1/2SM -SN OVC003 00/00 A3003 RMK AO2 T00001001
Loading
Personal Weather Stations






























Interactive Weather Map New forecast layout! Learn more

10-Day Weather Forecast

Advertisements
Track Severe Weather on mobile